首页
METAR-TAF:

METAR-TAF

机场 :

Black River Falls, 威斯康辛州, 美国

纬度: 44-15-03N, 经度: 090-51-19W, 海拔: 255米

当前天气观测

该预报发布于26分钟前的09:55 UTC
静风
温度 16°C
湿度 100%
气压 1013 hPa
阴天层高于200英尺

METAR: KBCK 260955Z AUTO 00000KT M1/4SM FG OVC002 16/16 A2991 RMK AO2 P0002 T01590159

时间: 05:21 (10:21 UTC)


TAF: 丢失

超过4000个机场的气象观测和天气预报(METAR&TAF报告)。

可查询的气象台以黄色和红色小点在地图上表示。

将鼠标移到小点上方,可查看气象台名称。

然后点击查看天气观测和预报。

如需切换地图:点击带黑十字的绿色按钮放大地图;点击带横线的绿色按钮缩小地图;或者点击绿色箭头查看邻近地区的地图。


METAR-TAF: